Time;durP1;ratioP1;P1;durP2;ratioP2;P2;SDS_P1;SDS_P2;PMS_P1;PMS_P2;Temp;Humidity;BMP_temperature;BMP_pressure;BME280_temperature;BME280_humidity;BME280_pressure;Samples;Min_cycle;Max_cycle;Signal;HPM_P1;HPM_P2
2021/08/25 00:00:44;;;;;;;4.72;3.17;;;;;;;13.45;76.07;101988.25;4952003;28;20402;-84
2021/08/25 00:03:11;;;;;;;3.63;2.35;;;;;;;13.39;76.96;101981.25;4934004;28;20053;-83
2021/08/25 00:05:38;;;;;;;5.55;2.65;;;;;;;13.35;77.19;101984.69;4935932;28;20078;-83
2021/08/25 00:08:05;;;;;;;7.47;2.60;;;;;;;13.29;77.90;101977.69;4958894;28;20136;-78
2021/08/25 00:10:31;;;;;;;3.78;2.10;;;;;;;13.20;78.09;101975.03;4947309;28;20064;-80
2021/08/25 00:12:58;;;;;;;5.47;2.25;;;;;;;13.11;79.06;101968.00;4957165;28;20062;-77
2021/08/25 00:15:25;;;;;;;2.85;2.45;;;;;;;13.06;79.42;101968.03;4964965;28;20042;-79
2021/08/25 00:17:52;;;;;;;6.35;3.25;;;;;;;13.00;80.01;101962.75;4955590;28;20062;-81
2021/08/25 00:20:19;;;;;;;3.72;2.58;;;;;;;12.97;80.35;101961.84;4969886;28;20041;-84
2021/08/25 00:22:45;;;;;;;4.32;3.20;;;;;;;12.90;80.49;101960.97;4946188;28;20053;-81
2021/08/25 00:25:12;;;;;;;5.00;3.00;;;;;;;12.85;80.96;101967.97;4954853;28;20042;-80
2021/08/25 00:27:38;;;;;;;4.30;2.50;;;;;;;12.81;81.55;101971.47;4935853;28;20043;-81
2021/08/25 00:30:05;;;;;;;3.38;2.40;;;;;;;12.76;82.39;101965.31;4950267;28;20133;-79
2021/08/25 00:32:33;;;;;;;2.83;2.63;;;;;;;12.70;82.26;101969.66;4948108;28;20046;-84
2021/08/25 00:34:59;;;;;;;4.45;2.53;;;;;;;12.64;82.66;101959.13;4936541;28;20076;-84
2021/08/25 00:37:26;;;;;;;6.40;2.60;;;;;;;12.58;83.27;101969.66;4969442;28;20452;-82
2021/08/25 00:39:53;;;;;;;5.65;3.05;;;;;;;12.51;83.87;101960.84;4952193;28;20050;-80
2021/08/25 00:42:19;;;;;;;6.10;2.80;;;;;;;12.46;84.32;101952.06;4949005;28;20192;-82
2021/08/25 00:44:47;;;;;;;6.13;3.33;;;;;;;12.42;84.51;101960.78;4966345;28;20046;-82
2021/08/25 00:47:15;;;;;;;4.55;2.95;;;;;;;12.37;84.96;101946.78;4953110;28;20054;-77
2021/08/25 00:49:44;;;;;;;4.25;3.10;;;;;;;12.33;85.32;101953.78;4951796;28;20066;-87
2021/08/25 00:52:11;;;;;;;6.32;3.35;;;;;;;12.29;85.83;101951.13;4943961;28;20054;-80
2021/08/25 00:54:37;;;;;;;5.10;3.92;;;;;;;12.24;85.81;101949.34;4966521;28;20496;-81
2021/08/25 00:57:05;;;;;;;3.72;3.03;;;;;;;12.21;85.99;101945.81;4968387;28;20164;-80
2021/08/25 00:59:33;;;;;;;6.97;3.25;;;;;;;12.17;86.38;101944.06;4953230;28;20379;-83
2021/08/25 01:02:31;;;;;;;6.25;4.55;;;;;;;12.11;86.28;101947.53;4936125;28;20090;-78
2021/08/25 01:05:00;;;;;;;6.38;3.00;;;;;;;12.05;86.96;101937.88;4965495;28;20573;-76
2021/08/25 01:07:36;;;;;;;4.85;3.10;;;;;;;12.01;87.36;101937.88;4971270;28;20136;-82
2021/08/25 01:10:30;;;;;;;4.15;3.20;;;;;;;11.96;87.92;101937.81;4949675;28;20129;-81
2021/08/25 01:13:02;;;;;;;3.38;2.80;;;;;;;11.94;87.79;101938.66;4937941;28;20054;-83
2021/08/25 01:15:37;;;;;;;5.18;3.70;;;;;;;11.92;87.70;101928.16;4950793;28;20054;-80
2021/08/25 01:18:07;;;;;;;3.97;2.95;;;;;;;11.89;87.78;101926.38;4970805;28;20059;-85
2021/08/25 01:20:35;;;;;;;3.58;2.63;;;;;;;11.88;88.21;101918.50;4954639;28;20050;-79
2021/08/25 01:23:04;;;;;;;4.03;2.92;;;;;;;11.86;88.12;101910.63;4950113;28;20070;-83
2021/08/25 01:25:33;;;;;;;5.35;3.00;;;;;;;11.87;88.46;101906.25;4953560;28;20043;-79
2021/08/25 01:28:04;;;;;;;4.88;3.63;;;;;;;11.85;87.87;101902.72;4968943;28;20062;-78
2021/08/25 01:30:34;;;;;;;4.53;2.92;;;;;;;11.83;88.04;101905.34;4950491;28;21034;-80
2021/08/25 01:33:01;;;;;;;5.40;3.03;;;;;;;11.80;88.53;101897.47;4970276;28;20066;-84
2021/08/25 01:35:43;;;;;;;4.63;3.38;;;;;;;11.81;89.18;101906.19;4975261;28;20100;-83
2021/08/25 01:38:09;;;;;;;4.18;2.95;;;;;;;11.77;88.54;101900.06;4958937;28;20416;-84
2021/08/25 01:40:36;;;;;;;5.70;3.17;;;;;;;11.74;88.63;101892.19;4949279;28;20053;-77
2021/08/25 01:43:04;;;;;;;4.72;3.25;;;;;;;11.71;89.26;101894.78;4956403;28;20053;-81
2021/08/25 01:45:33;;;;;;;5.05;3.85;;;;;;;11.68;89.44;101894.75;4951722;28;20053;-79
2021/08/25 01:47:59;;;;;;;5.85;3.28;;;;;;;11.66;89.56;101888.63;4956928;28;20046;-78
2021/08/25 01:50:26;;;;;;;3.25;2.70;;;;;;;11.64;89.69;101896.50;4954567;28;20137;-80
2021/08/25 01:52:52;;;;;;;4.65;3.75;;;;;;;11.62;89.74;101886.88;4937028;28;20047;-80
2021/08/25 01:55:20;;;;;;;5.47;3.13;;;;;;;11.58;89.52;101881.59;4971145;28;20055;-85
2021/08/25 01:57:48;;;;;;;5.95;3.10;;;;;;;11.56;89.78;101885.06;4951702;28;20767;-82
2021/08/25 02:00:16;;;;;;;5.63;3.50;;;;;;;11.53;89.99;101879.81;4955337;28;20077;-86
2021/08/25 02:02:42;;;;;;;5.43;3.55;;;;;;;11.51;90.06;101877.19;4972563;28;20809;-83
2021/08/25 02:05:09;;;;;;;5.43;3.03;;;;;;;11.47;90.49;101872.78;4967510;28;20045;-77
2021/08/25 02:07:39;;;;;;;4.78;3.40;;;;;;;11.45;90.65;101863.16;4974403;28;20050;-79
2021/08/25 02:10:07;;;;;;;7.72;3.92;;;;;;;11.44;90.95;101866.63;4950315;28;20058;-79
2021/08/25 02:12:33;;;;;;;6.10;4.13;;;;;;;11.42;91.33;101858.78;4952334;28;20684;-82
2021/08/25 02:15:00;;;;;;;4.47;2.90;;;;;;;11.41;90.96;101859.63;4940560;28;20533;-81
2021/08/25 02:17:27;;;;;;;4.22;3.38;;;;;;;11.40;91.71;101861.34;4948238;28;20062;-84
2021/08/25 02:19:54;;;;;;;6.20;3.60;;;;;;;11.39;91.33;101857.00;4951992;28;20051;-82
2021/08/25 02:22:20;;;;;;;3.33;2.90;;;;;;;11.39;91.69;101854.38;4954596;28;20053;-81
2021/08/25 02:24:47;;;;;;;4.45;2.88;;;;;;;11.37;91.28;101855.22;4942682;28;20501;-85
2021/08/25 02:27:14;;;;;;;3.22;2.75;;;;;;;11.34;91.66;101856.09;4953150;28;20068;-84
2021/08/25 02:29:40;;;;;;;5.32;3.42;;;;;;;11.30;92.26;101854.28;4953532;28;20136;-80
2021/08/25 02:32:07;;;;;;;4.88;3.28;;;;;;;11.29;92.42;101849.94;4970276;28;20081;-83
2021/08/25 02:34:37;;;;;;;4.38;2.92;;;;;;;11.24;92.44;101852.50;4951956;28;20062;-80
2021/08/25 02:37:04;;;;;;;5.57;3.58;;;;;;;11.22;92.20;101850.75;4958224;28;20587;-80
2021/08/25 02:39:30;;;;;;;3.20;2.67;;;;;;;11.20;92.66;101842.88;4950355;28;20125;-84
2021/08/25 02:41:57;;;;;;;5.13;3.33;;;;;;;11.17;92.71;101840.25;4952540;28;20618;-80
2021/08/25 02:44:25;;;;;;;6.10;3.30;;;;;;;11.15;92.77;101835.84;4956250;28;20042;-81
2021/08/25 02:46:51;;;;;;;4.78;2.55;;;;;;;11.12;93.25;101838.44;4935072;28;20046;-80
2021/08/25 02:49:18;;;;;;;5.93;4.15;;;;;;;11.09;92.88;101841.91;4951423;28;20196;-81
2021/08/25 02:51:44;;;;;;;3.30;2.83;;;;;;;11.07;92.94;101834.03;4950252;28;20197;-79
2021/08/25 02:54:11;;;;;;;3.85;2.65;;;;;;;11.03;93.31;101833.97;4938299;28;20065;-83
2021/08/25 02:56:37;;;;;;;4.88;3.38;;;;;;;11.03;94.19;101834.88;4969182;28;20043;-77
2021/08/25 02:59:04;;;;;;;4.55;3.17;;;;;;;11.01;93.77;101823.50;4949083;28;20043;-76
2021/08/25 03:01:31;;;;;;;3.47;3.03;;;;;;;10.99;93.25;101820.00;4950152;28;20047;-81
2021/08/25 03:03:57;;;;;;;5.38;2.88;;;;;;;10.98;93.71;101820.88;4951316;28;20133;-79
2021/08/25 03:06:24;;;;;;;4.65;3.17;;;;;;;10.96;93.86;101822.56;4968934;28;20134;-82
2021/08/25 03:08:50;;;;;;;5.07;3.08;;;;;;;10.94;93.87;101808.59;4952316;28;20745;-81
2021/08/25 03:11:17;;;;;;;4.43;3.30;;;;;;;10.94;93.59;101803.38;4931657;28;20054;-79
2021/08/25 03:13:44;;;;;;;4.55;3.33;;;;;;;10.92;94.23;101800.75;4952287;28;20051;-85
2021/08/25 03:16:11;;;;;;;4.68;2.90;;;;;;;10.91;93.88;101804.22;4963544;28;20050;-80
2021/08/25 03:18:37;;;;;;;4.90;3.22;;;;;;;10.91;94.02;101800.69;4950869;28;20043;-79
2021/08/25 03:21:04;;;;;;;5.97;3.30;;;;;;;10.89;94.32;101799.84;4934706;28;20144;-82
2021/08/25 03:23:31;;;;;;;5.13;3.20;;;;;;;10.91;94.49;101796.34;4949293;28;20042;-80
2021/08/25 03:25:58;;;;;;;3.15;2.85;;;;;;;10.90;94.05;101785.88;4953080;28;20043;-81
2021/08/25 03:28:27;;;;;;;5.15;3.03;;;;;;;10.89;93.97;101784.13;4950410;28;20057;-80
2021/08/25 03:30:57;;;;;;;6.78;4.47;;;;;;;10.88;94.53;101782.34;4950072;28;20055;-83
2021/08/25 03:33:24;;;;;;;5.72;3.15;;;;;;;10.89;94.52;101778.88;4939652;28;20043;-80
2021/08/25 03:35:51;;;;;;;4.50;3.55;;;;;;;10.87;94.57;101778.88;4949451;28;20505;-83
2021/08/25 03:38:18;;;;;;;3.75;2.72;;;;;;;10.86;94.57;101784.97;4951792;28;20096;-82
2021/08/25 03:40:44;;;;;;;7.70;3.38;;;;;;;10.85;94.52;101785.81;4944309;28;20478;-81
2021/08/25 03:43:11;;;;;;;6.50;3.88;;;;;;;10.80;94.81;101782.28;4952448;28;20606;-82
2021/08/25 03:45:43;;;;;;;6.93;3.03;;;;;;;10.78;94.77;101784.03;4950941;28;20054;-84
2021/08/25 03:48:10;;;;;;;4.47;3.22;;;;;;;10.75;95.37;101784.88;4967123;28;20445;-79
2021/08/25 03:50:37;;;;;;;4.20;2.75;;;;;;;10.76;95.35;101777.91;4952816;28;20113;-78
2021/08/25 03:53:04;;;;;;;7.13;3.45;;;;;;;10.71;95.14;101783.06;4948662;28;20588;-84
2021/08/25 03:55:30;;;;;;;4.82;2.65;;;;;;;10.68;95.71;101783.06;4934272;28;20296;-79
2021/08/25 03:57:57;;;;;;;3.88;3.00;;;;;;;10.63;95.67;101779.53;4951653;28;20050;-81
2021/08/25 04:00:24;;;;;;;4.88;2.78;;;;;;;10.62;95.84;101792.63;4965627;28;20037;-82
2021/08/25 04:02:51;;;;;;;5.40;3.40;;;;;;;10.59;96.06;101790.84;4955626;28;20045;-83
2021/08/25 04:05:17;;;;;;;4.00;2.97;;;;;;;10.59;96.06;101789.09;4964575;28;20050;-84
2021/08/25 04:07:44;;;;;;;5.88;3.58;;;;;;;10.58;96.49;101795.19;4955353;28;20045;-80
2021/08/25 04:10:11;;;;;;;3.65;3.05;;;;;;;10.58;96.45;101783.84;4948514;28;20058;-84
2021/08/25 04:12:38;;;;;;;5.22;3.10;;;;;;;10.58;96.84;101789.06;4950829;28;20042;-78
2021/08/25 04:15:07;;;;;;;4.53;3.00;;;;;;;10.60;96.59;101784.75;4958192;28;20129;-81
2021/08/25 04:17:34;;;;;;;5.90;3.33;;;;;;;10.59;96.72;101783.84;4963528;28;20678;-80
2021/08/25 04:20:01;;;;;;;3.90;2.55;;;;;;;10.56;96.58;101773.38;4935271;28;20047;-79
2021/08/25 04:22:28;;;;;;;3.45;2.97;;;;;;;10.52;96.32;101774.19;4949489;28;21625;-79
2021/08/25 04:24:55;;;;;;;5.63;3.20;;;;;;;10.50;96.83;101773.28;4952768;28;20038;-78
2021/08/25 04:27:23;;;;;;;4.82;3.53;;;;;;;10.46;96.61;101770.66;4956285;28;20051;-81
2021/08/25 04:29:49;;;;;;;5.55;3.33;;;;;;;10.46;97.17;101773.28;4932088;28;20054;-81
2021/08/25 04:32:16;;;;;;;4.70;3.50;;;;;;;10.43;97.29;101774.13;4966083;28;20056;-79
2021/08/25 04:34:43;;;;;;;7.50;3.70;;;;;;;10.41;97.23;101765.34;4947765;28;20523;-78
2021/08/25 04:37:10;;;;;;;4.93;3.30;;;;;;;10.41;97.19;101768.84;4954388;28;20061;-79
2021/08/25 04:39:36;;;;;;;5.75;3.50;;;;;;;10.42;97.50;101770.59;4961948;28;20034;-83
2021/08/25 04:42:03;;;;;;;5.07;3.70;;;;;;;10.45;97.68;101764.53;4932318;28;20109;-83
2021/08/25 04:44:30;;;;;;;8.20;4.40;;;;;;;10.49;97.13;101762.81;4951866;28;20090;-79
2021/08/25 04:46:56;;;;;;;9.13;4.03;;;;;;;10.55;96.97;101761.13;4962187;28;20061;-83
2021/08/25 04:49:23;;;;;;;8.13;4.30;;;;;;;10.65;96.81;101761.19;4934746;28;20564;-82
2021/08/25 04:51:49;;;;;;;8.95;3.97;;;;;;;10.74;96.54;101761.28;4967869;28;20046;-77
2021/08/25 04:54:16;;;;;;;8.88;3.90;;;;;;;10.85;95.85;101764.00;4938896;28;20448;-78
2021/08/25 04:57:25;;;;;;;4.95;3.55;;;;;;;10.95;95.29;101762.31;4956384;28;20053;-84
2021/08/25 05:00:16;;;;;;;5.47;3.33;;;;;;;11.08;95.05;101758.91;4955754;28;20062;-79
2021/08/25 05:02:44;;;;;;;5.63;3.38;;;;;;;11.17;94.54;101755.47;4969846;28;20062;-78
2021/08/25 05:05:11;;;;;;;7.72;3.75;;;;;;;11.28;93.93;101755.53;4969125;28;20054;-82
2021/08/25 05:07:38;;;;;;;7.72;4.75;;;;;;;11.37;93.44;101748.59;4955974;28;20042;-82
2021/08/25 05:10:21;;;;;;;6.68;3.85;;;;;;;11.48;92.78;101745.16;4953493;28;20054;-83
2021/08/25 05:13:04;;;;;;;7.22;3.33;;;;;;;11.57;91.69;101746.06;4957755;28;20054;-83
2021/08/25 05:15:33;;;;;;;5.53;3.38;;;;;;;11.62;91.49;101740.84;4969858;28;20864;-82
2021/08/25 05:18:06;;;;;;;8.95;3.53;;;;;;;11.69;90.98;101736.50;4933388;28;20073;-86
2021/08/25 05:20:33;;;;;;;4.55;3.45;;;;;;;11.72;91.03;101726.91;4945341;28;20046;-84
2021/08/25 05:23:00;;;;;;;7.90;3.28;;;;;;;11.77;90.15;101734.78;4928660;28;20100;-81
2021/08/25 05:25:27;;;;;;;7.53;4.05;;;;;;;11.80;90.35;101734.81;4956079;28;20045;-77
2021/08/25 05:27:56;;;;;;;5.38;3.30;;;;;;;11.87;90.08;101731.31;4964876;28;20772;-80
2021/08/25 05:30:23;;;;;;;5.88;3.15;;;;;;;11.93;89.41;101733.09;4945571;28;20524;-83
2021/08/25 05:32:54;;;;;;;7.35;4.75;;;;;;;11.99;89.28;101734.91;4967391;28;20042;-78
2021/08/25 05:35:24;;;;;;;7.75;3.65;;;;;;;12.02;89.25;101733.16;4956399;28;21249;-79
2021/08/25 05:37:51;;;;;;;6.72;4.18;;;;;;;12.07;88.92;101728.78;4941612;28;20049;-81
2021/08/25 05:40:19;;;;;;;7.88;3.30;;;;;;;12.10;88.83;101732.28;4955453;28;20058;-84
2021/08/25 05:42:47;;;;;;;7.50;3.97;;;;;;;12.16;89.00;101733.19;4959396;28;20043;-78
2021/08/25 05:45:13;;;;;;;9.75;3.35;;;;;;;12.21;88.72;101736.69;4961965;28;20042;-79
2021/08/25 05:47:41;;;;;;;9.07;4.40;;;;;;;12.26;88.58;101741.09;4957998;28;20042;-79
2021/08/25 05:50:12;;;;;;;7.60;3.72;;;;;;;12.32;88.62;101734.09;4961852;28;20064;-83
2021/08/25 05:52:39;;;;;;;7.20;5.63;;;;;;;12.38;88.10;101735.84;4963380;28;20114;-83
2021/08/25 05:55:06;;;;;;;5.20;3.63;;;;;;;12.46;87.78;101738.47;4945033;28;20428;-82
2021/08/25 05:57:33;;;;;;;6.25;3.67;;;;;;;12.57;87.62;101744.63;4981251;28;20049;-83
2021/08/25 06:00:03;;;;;;;7.50;5.22;;;;;;;12.65;87.08;101736.72;4974020;28;20512;-82
2021/08/25 06:02:29;;;;;;;5.82;4.03;;;;;;;12.73;86.66;101729.72;4961124;28;20576;-83
2021/08/25 06:04:56;;;;;;;10.60;4.22;;;;;;;12.81;86.46;101725.31;4977100;28;20074;-80
2021/08/25 06:07:23;;;;;;;7.28;5.00;;;;;;;12.87;85.76;101725.31;4975345;28;20050;-82
2021/08/25 06:09:50;;;;;;;8.88;3.92;;;;;;;12.91;85.83;101716.53;4946342;28;20049;-80
2021/08/25 06:12:16;;;;;;;5.88;3.85;;;;;;;12.96;85.92;101715.66;4969222;28;20563;-82
2021/08/25 06:14:43;;;;;;;9.98;4.60;;;;;;;13.02;85.32;101716.56;4958823;28;20599;-81
2021/08/25 06:17:09;;;;;;;6.05;3.53;;;;;;;13.10;85.34;101708.63;4953759;28;20212;-80
2021/08/25 06:19:36;;;;;;;7.65;4.28;;;;;;;13.17;84.96;101699.84;4961479;28;20045;-81
2021/08/25 06:22:03;;;;;;;5.88;3.38;;;;;;;13.26;84.48;101708.56;4976642;28;20125;-83
2021/08/25 06:24:29;;;;;;;6.22;4.13;;;;;;;13.29;84.25;101705.97;4956856;28;20038;-83
2021/08/25 06:26:56;;;;;;;8.25;4.00;;;;;;;13.34;84.29;101701.56;4977659;28;20039;-80
2021/08/25 06:29:23;;;;;;;4.55;3.47;;;;;;;13.40;83.91;101697.19;4958340;28;20823;-84
2021/08/25 06:31:49;;;;;;;5.28;3.47;;;;;;;13.47;83.79;101697.16;4958092;28;20545;-80
2021/08/25 06:34:16;;;;;;;10.77;4.38;;;;;;;13.54;83.25;101699.72;4966033;28;20125;-82
2021/08/25 06:36:43;;;;;;;7.75;3.83;;;;;;;13.61;82.89;101703.22;4942305;28;20042;-78
2021/08/25 06:39:10;;;;;;;5.38;3.88;;;;;;;13.68;82.85;101710.19;4959302;28;20053;-79
2021/08/25 06:41:38;;;;;;;8.68;3.65;;;;;;;13.76;82.60;101704.91;4953267;28;20092;-81
2021/08/25 06:44:08;;;;;;;5.95;3.80;;;;;;;13.83;82.54;101701.38;4957800;28;20057;-80
2021/08/25 06:46:44;;;;;;;8.18;3.65;;;;;;;13.89;82.18;101703.06;4954855;28;20241;-79
2021/08/25 06:49:11;;;;;;;8.18;3.95;;;;;;;13.94;82.10;101698.66;4974617;28;20062;-83
2021/08/25 06:51:37;;;;;;;7.78;3.75;;;;;;;13.99;81.91;101699.50;4939843;28;20050;-84
2021/08/25 06:54:04;;;;;;;4.63;3.55;;;;;;;14.06;81.58;101705.59;4955112;28;20456;-83
2021/08/25 06:56:31;;;;;;;6.75;3.28;;;;;;;14.16;80.94;101701.16;4957708;28;20045;-82
2021/08/25 06:58:57;;;;;;;5.80;4.00;;;;;;;14.29;80.12;101704.56;4969261;28;20042;-83
2021/08/25 07:01:25;;;;;;;7.10;3.83;;;;;;;14.36;80.00;101701.00;4942771;28;20046;-84
2021/08/25 07:03:51;;;;;;;5.50;4.40;;;;;;;14.47;79.28;101691.25;4959597;28;20042;-81
2021/08/25 07:06:19;;;;;;;5.63;4.43;;;;;;;14.56;78.83;101692.91;4937712;28;20141;-85
2021/08/25 07:08:47;;;;;;;5.40;3.55;;;;;;;14.67;78.50;101691.09;4959673;28;20046;-82
2021/08/25 07:11:14;;;;;;;4.95;3.55;;;;;;;14.78;77.73;101685.72;4970768;28;20054;-83
2021/08/25 07:13:41;;;;;;;8.02;3.45;;;;;;;14.84;77.08;101682.16;4975648;28;20046;-84
2021/08/25 07:16:10;;;;;;;4.72;3.00;;;;;;;14.96;76.76;101679.38;4956380;28;20050;-83
2021/08/25 07:18:37;;;;;;;4.32;3.20;;;;;;;15.12;76.16;101685.38;4969596;28;20505;-82
2021/08/25 07:21:04;;;;;;;6.30;2.90;;;;;;;15.29;75.43;101685.19;4959302;28;20081;-78
2021/08/25 07:23:32;;;;;;;4.85;2.80;;;;;;;15.47;74.49;101683.19;4970130;28;20046;-85
2021/08/25 07:25:58;;;;;;;6.90;3.50;;;;;;;15.65;73.68;101679.44;4953872;28;20646;-82
2021/08/25 07:28:25;;;;;;;5.25;3.33;;;;;;;15.78;72.96;101673.09;4956387;28;20460;-79
2021/08/25 07:30:52;;;;;;;5.32;3.30;;;;;;;15.93;72.80;101669.41;4954466;28;20617;-80
2021/08/25 07:33:20;;;;;;;5.65;3.47;;;;;;;16.07;71.84;101671.81;4944024;28;20053;-81
2021/08/25 07:35:48;;;;;;;4.88;3.08;;;;;;;16.22;71.47;101670.72;4952970;28;20333;-82
2021/08/25 07:38:16;;;;;;;5.13;3.38;;;;;;;16.37;70.22;101669.56;4958119;28;20379;-86
2021/08/25 07:40:44;;;;;;;3.85;3.00;;;;;;;16.43;70.18;101668.63;4952839;28;20125;-83
2021/08/25 07:43:11;;;;;;;7.28;3.83;;;;;;;16.35;68.41;101672.25;4969223;28;20038;-82
2021/08/25 07:45:37;;;;;;;5.45;3.22;;;;;;;16.42;69.64;101680.06;4957377;28;20060;-82
2021/08/25 07:48:07;;;;;;;4.45;3.03;;;;;;;16.53;69.33;101668.41;4950827;28;20059;-80
2021/08/25 07:50:34;;;;;;;8.00;3.92;;;;;;;16.78;68.82;101672.38;4957301;28;20046;-79
2021/08/25 07:53:02;;;;;;;4.45;3.22;;;;;;;17.13;67.17;101669.09;4958198;28;20047;-82
2021/08/25 07:55:34;;;;;;;3.72;2.55;;;;;;;17.64;66.08;101667.16;4938331;28;20128;-85
2021/08/25 07:58:18;;;;;;;5.55;3.40;;;;;;;18.62;63.40;101655.97;4957347;28;20054;-82
2021/08/25 08:00:45;;;;;;;5.00;3.33;;;;;;;19.72;60.12;101666.13;4947807;28;20181;-82
2021/08/25 08:03:11;;;;;;;4.78;3.10;;;;;;;20.58;57.04;101657.13;4944236;28;20863;-80
2021/08/25 08:05:38;;;;;;;3.65;2.80;;;;;;;20.80;56.33;101651.06;4937121;28;20139;-82
2021/08/25 08:08:05;;;;;;;4.20;2.67;;;;;;;20.54;56.58;101649.31;4940154;28;20051;-81
2021/08/25 08:10:31;;;;;;;4.65;2.75;;;;;;;20.10;56.79;101648.13;4955998;28;20477;-84
2021/08/25 08:12:58;;;;;;;5.60;3.30;;;;;;;19.75;57.82;101647.44;4965907;28;20477;-79
2021/08/25 08:15:27;;;;;;;3.13;2.67;;;;;;;19.51;58.14;101646.41;4966614;28;20043;-85
2021/08/25 08:17:53;;;;;;;8.32;2.97;;;;;;;19.26;58.74;101639.19;4953008;28;20603;-79
2021/08/25 08:20:23;;;;;;;3.50;2.70;;;;;;;19.16;58.46;101635.06;4955814;28;20055;-85
2021/08/25 08:22:50;;;;;;;3.75;2.67;;;;;;;19.45;57.77;101628.00;4956181;28;20496;-78
2021/08/25 08:25:17;;;;;;;3.75;1.98;;;;;;;19.77;56.67;101628.78;4952551;28;20056;-84
2021/08/25 08:27:43;;;;;;;3.92;3.22;;;;;;;19.87;55.82;101632.03;4951175;28;20065;-82
2021/08/25 08:33:33;;;;;;;6.70;3.28;;;;;;;19.45;56.60;101631.53;4956615;28;20046;-79
2021/08/25 08:36:23;;;;;;;2.40;1.90;;;;;;;20.07;54.52;101629.59;4935988;28;20078;-85
2021/08/25 08:39:30;;;;;;;3.97;2.97;;;;;;;21.13;53.00;101618.81;4950778;28;20451;-82
2021/08/25 08:41:57;;;;;;;5.32;2.95;;;;;;;22.41;49.89;101604.81;4935136;28;20049;-82
2021/08/25 08:44:27;;;;;;;2.63;2.42;;;;;;;23.38;47.00;101600.44;4956702;28;20074;-83
2021/08/25 08:46:54;;;;;;;4.50;2.80;;;;;;;24.09;45.56;101593.44;4954405;28;20050;-79
2021/08/25 08:49:22;;;;;;;3.35;2.85;;;;;;;24.67;44.45;101588.72;4962992;28;20042;-80
2021/08/25 08:51:51;;;;;;;4.38;2.90;;;;;;;24.86;43.92;101594.81;4968747;28;20069;-81
2021/08/25 08:54:21;;;;;;;4.32;2.72;;;;;;;24.89;43.69;101597.28;4953787;28;20042;-84
2021/08/25 08:56:50;;;;;;;4.63;2.80;;;;;;;24.82;42.82;101597.72;4960711;28;20500;-83
2021/08/25 08:59:17;;;;;;;4.47;2.85;;;;;;;25.25;42.33;101595.34;4977589;28;20052;-80
2021/08/25 09:01:45;;;;;;;3.20;2.75;;;;;;;25.91;41.22;101588.03;4966507;28;20176;-85
2021/08/25 09:04:36;;;;;;;4.10;2.45;;;;;;;26.22;39.75;101588.94;4973266;28;20078;-82
2021/08/25 09:07:04;;;;;;;2.85;2.35;;;;;;;26.20;39.75;101589.00;4968722;28;20046;-86
2021/08/25 09:09:52;;;;;;;4.10;2.53;;;;;;;26.47;38.66;101579.38;4973481;28;20118;-83
2021/08/25 09:12:22;;;;;;;4.45;2.90;;;;;;;26.77;38.66;101567.72;4968870;28;20490;-83
2021/08/25 09:14:49;;;;;;;3.50;2.88;;;;;;;26.88;37.53;101576.84;4959672;28;20112;-81
2021/08/25 09:17:30;;;;;;;5.15;2.95;;;;;;;27.13;36.48;101569.00;4961056;28;20065;-84
2021/08/25 09:20:11;;;;;;;3.58;2.90;;;;;;;27.46;35.54;101567.81;4944340;28;20118;-79
2021/08/25 09:22:38;;;;;;;5.97;3.20;;;;;;;27.77;35.80;101563.06;4949017;28;20358;-81
2021/08/25 09:25:06;;;;;;;2.63;2.42;;;;;;;28.18;34.89;101554.88;4955610;28;20112;-79
2021/08/25 09:27:52;;;;;;;5.03;2.65;;;;;;;28.35;33.09;101555.53;4962083;28;20047;-78
2021/08/25 09:30:22;;;;;;;3.63;3.03;;;;;;;29.01;33.41;101545.44;4977318;28;20927;-80
2021/08/25 09:32:48;;;;;;;3.25;2.40;;;;;;;29.46;32.90;101538.63;4962258;28;20068;-81
2021/08/25 09:35:15;;;;;;;4.05;2.95;;;;;;;30.17;31.82;101552.97;4968568;28;20053;-82
2021/08/25 09:37:54;;;;;;;3.30;3.00;;;;;;;30.44;30.71;101546.41;4947997;28;20052;-85
2021/08/25 09:40:20;;;;;;;3.10;2.78;;;;;;;30.86;30.41;101540.38;4981036;28;20045;-81
2021/08/25 09:42:51;;;;;;;3.92;2.45;;;;;;;31.28;29.67;101540.56;4958048;28;20048;-83
2021/08/25 09:45:19;;;;;;;3.30;2.33;;;;;;;31.51;28.92;101535.94;4966041;28;20124;-83
2021/08/25 09:48:12;;;;;;;2.92;2.53;;;;;;;31.37;28.47;101528.13;4981965;28;20046;-83
2021/08/25 09:50:39;;;;;;;4.70;2.30;;;;;;;31.70;28.81;101533.53;4959248;28;20042;-82
2021/08/25 09:53:19;;;;;;;3.42;3.13;;;;;;;31.82;27.32;101517.13;4978485;28;20064;-80
2021/08/25 09:55:46;;;;;;;3.58;2.85;;;;;;;32.10;28.34;101520.13;4956683;28;20066;-84
2021/08/25 09:58:15;;;;;;;3.28;2.88;;;;;;;32.25;27.67;101514.38;4947947;28;20305;-84
2021/08/25 10:00:42;;;;;;;4.10;3.60;;;;;;;31.90;27.85;101516.47;4970663;28;20078;-81
2021/08/25 10:03:09;;;;;;;5.85;2.63;;;;;;;31.94;27.76;101520.63;4959747;28;20038;-83
2021/08/25 10:05:36;;;;;;;3.45;3.08;;;;;;;31.53;28.46;101516.84;4953991;28;20061;-80
2021/08/25 10:08:05;;;;;;;4.55;3.17;;;;;;;31.54;28.18;101515.88;4955526;28;20053;-85
2021/08/25 10:10:32;;;;;;;4.10;3.28;;;;;;;31.64;27.87;101507.84;4961346;28;20539;-79
2021/08/25 10:12:59;;;;;;;6.00;3.33;;;;;;;31.53;27.45;101511.44;4960269;28;20504;-80
2021/08/25 10:15:31;;;;;;;5.00;3.58;;;;;;;31.80;27.58;101496.59;4928929;28;20050;-82
2021/08/25 10:21:47;;;;;;;4.85;3.33;;;;;;;30.66;29.21;101493.34;4987584;28;20054;-85
2021/08/25 10:24:13;;;;;;;7.13;3.05;;;;;;;31.25;28.22;101475.03;4961058;28;20124;-83
2021/08/25 10:26:58;;;;;;;9.23;3.47;;;;;;;31.94;26.31;101473.69;4969656;28;20093;-82
2021/08/25 10:29:30;;;;;;;4.97;3.50;;;;;;;32.24;26.69;101467.50;4987371;28;20057;-79
2021/08/25 10:31:57;;;;;;;3.40;3.15;;;;;;;32.49;26.43;101466.16;4973460;28;20058;-80
2021/08/25 10:34:28;;;;;;;4.05;3.65;;;;;;;32.94;25.71;101459.41;4988829;28;20485;-85
2021/08/25 10:37:26;;;;;;;4.35;3.50;;;;;;;32.79;25.59;101450.00;4976406;28;20038;-78
2021/08/25 10:40:01;;;;;;;3.28;2.97;;;;;;;33.11;25.61;101449.72;4982989;28;20049;-82
2021/08/25 10:43:00;;;;;;;3.38;3.05;;;;;;;33.12;25.52;101446.00;4959237;28;20105;-79
2021/08/25 10:45:48;;;;;;;4.43;3.58;;;;;;;32.68;25.52;101434.66;4953865;28;20058;-81
2021/08/25 10:51:57;;;;;;;4.30;2.78;;;;;;;33.28;25.69;101429.22;4966053;28;20474;-80
2021/08/25 10:55:03;;;;;;;4.35;3.30;;;;;;;33.54;25.07;101420.44;4941005;28;20054;-83
2021/08/25 10:57:44;;;;;;;5.00;3.20;;;;;;;33.23;25.67;101415.19;4965767;28;20101;-79
2021/08/25 11:00:54;;;;;;;2.78;2.58;;;;;;;31.95;25.42;101416.69;4978363;28;20473;-81
2021/08/25 11:03:36;;;;;;;3.05;2.80;;;;;;;32.55;25.53;101404.25;4943251;28;20497;-79
2021/08/25 11:06:37;;;;;;;4.53;3.17;;;;;;;32.16;25.91;101399.53;4952733;28;20659;-81
2021/08/25 11:09:33;;;;;;;3.42;2.92;;;;;;;31.06;27.04;101394.63;4980330;28;20046;-81
2021/08/25 11:12:19;;;;;;;5.70;3.35;;;;;;;30.33;28.22;101393.28;4979356;28;20193;-85
2021/08/25 11:14:56;;;;;;;3.65;3.35;;;;;;;31.24;27.59;101389.47;4965027;28;20050;-80
2021/08/25 11:17:33;;;;;;;5.75;3.47;;;;;;;31.61;27.13;101370.06;4961506;28;20050;-87
2021/08/25 11:20:12;;;;;;;4.53;3.72;;;;;;;32.20;26.64;101371.22;4963302;28;20046;-81
2021/08/25 11:22:45;;;;;;;3.15;2.83;;;;;;;33.06;25.70;101356.22;4975574;28;20046;-84
2021/08/25 11:25:18;;;;;;;4.10;3.80;;;;;;;33.87;24.65;101353.06;4978193;28;20053;-85
2021/08/25 11:27:52;;;;;;;3.05;2.80;;;;;;;34.31;24.19;101349.66;4967539;28;20042;-82
2021/08/25 11:30:31;;;;;;;3.47;3.17;;;;;;;34.20;24.20;101344.47;4963546;28;20056;-90
2021/08/25 11:33:08;;;;;;;4.03;2.78;;;;;;;33.26;24.84;101332.66;4964259;28;20054;-84
2021/08/25 11:35:39;;;;;;;3.72;2.92;;;;;;;32.85;25.36;101331.97;4964279;28;20049;-85
2021/08/25 11:38:08;;;;;;;4.65;2.90;;;;;;;32.87;25.75;101321.81;4958399;28;20951;-78
2021/08/25 11:40:40;;;;;;;3.42;2.92;;;;;;;33.60;24.66;101324.84;4974444;28;20069;-81
2021/08/25 11:43:22;;;;;;;4.43;3.33;;;;;;;34.28;23.70;101314.66;4974742;28;20123;-80
2021/08/25 11:45:55;;;;;;;5.25;3.25;;;;;;;33.42;24.40;101307.63;4975647;28;20054;-83
2021/08/25 11:48:30;;;;;;;4.40;3.83;;;;;;;33.58;24.10;101291.56;4973861;28;20053;-84